sensor_id;sensor_type;location;lat;lon;timestamp;pressure;altitude;pressure_sealevel;temperature;humidity
58473;BME280;44775;51.564;5.460;2023-03-19T00:00:50;100794.13;;;9.45;100.00
58473;BME280;44775;51.564;5.460;2023-03-19T00:03:15;100794.13;;;9.45;100.00
58473;BME280;44775;51.564;5.460;2023-03-19T00:05:49;100795.28;;;9.43;100.00
58473;BME280;44775;51.564;5.460;2023-03-19T00:08:14;100796.47;;;9.49;100.00
58473;BME280;44775;51.564;5.460;2023-03-19T00:10:40;100799.47;;;9.45;100.00
58473;BME280;44775;51.564;5.460;2023-03-19T00:13:05;100795.97;;;9.45;100.00
58473;BME280;44775;51.564;5.460;2023-03-19T00:15:31;100797.44;;;9.48;100.00
58473;BME280;44775;51.564;5.460;2023-03-19T00:17:56;100795.97;;;9.45;100.00
58473;BME280;44775;51.564;5.460;2023-03-19T00:20:21;100795.41;;;9.41;100.00
58473;BME280;44775;51.564;5.460;2023-03-19T00:22:47;100801.63;;;9.42;100.00
58473;BME280;44775;51.564;5.460;2023-03-19T00:25:12;100807.78;;;9.42;100.00
58473;BME280;44775;51.564;5.460;2023-03-19T00:27:37;100808.44;;;9.44;100.00
58473;BME280;44775;51.564;5.460;2023-03-19T00:30:06;100800.59;;;9.43;100.00
58473;BME280;44775;51.564;5.460;2023-03-19T00:32:32;100806.63;;;9.45;100.00
58473;BME280;44775;51.564;5.460;2023-03-19T00:34:58;100812.78;;;9.45;100.00
58473;BME280;44775;51.564;5.460;2023-03-19T00:37:23;100809.94;;;9.47;100.00
58473;BME280;44775;51.564;5.460;2023-03-19T00:39:48;100806.63;;;9.45;100.00
58473;BME280;44775;51.564;5.460;2023-03-19T00:42:14;100811.63;;;9.48;100.00
58473;BME280;44775;51.564;5.460;2023-03-19T00:44:39;100805.75;;;9.44;100.00
58473;BME280;44775;51.564;5.460;2023-03-19T00:47:05;100803.78;;;9.46;100.00
58473;BME280;44775;51.564;5.460;2023-03-19T00:49:31;100806.63;;;9.45;100.00
58473;BME280;44775;51.564;5.460;2023-03-19T00:51:56;100814.63;;;9.45;100.00
58473;BME280;44775;51.564;5.460;2023-03-19T00:54:21;100810.28;;;9.44;100.00
58473;BME280;44775;51.564;5.460;2023-03-19T00:56:47;100808.13;;;9.48;100.00
58473;BME280;44775;51.564;5.460;2023-03-19T00:59:12;100809.94;;;9.47;100.00
58473;BME280;44775;51.564;5.460;2023-03-19T01:01:37;100804.78;;;9.45;100.00
58473;BME280;44775;51.564;5.460;2023-03-19T01:04:03;100810.78;;;9.48;100.00
58473;BME280;44775;51.564;5.460;2023-03-19T01:06:28;100810.13;;;9.45;100.00
58473;BME280;44775;51.564;5.460;2023-03-19T01:08:54;100810.78;;;9.48;100.00
58473;BME280;44775;51.564;5.460;2023-03-19T01:11:19;100809.63;;;9.42;100.00
58473;BME280;44775;51.564;5.460;2023-03-19T01:13:44;100819.59;;;9.40;100.00
58473;BME280;44775;51.564;5.460;2023-03-19T01:16:11;100820.13;;;9.43;100.00
58473;BME280;44775;51.564;5.460;2023-03-19T01:18:36;100815.94;;;9.41;100.00
58473;BME280;44775;51.564;5.460;2023-03-19T01:21:02;100811.09;;;9.36;100.00
58473;BME280;44775;51.564;5.460;2023-03-19T01:23:29;100810.59;;;9.41;100.00
58473;BME280;44775;51.564;5.460;2023-03-19T01:25:55;100814.25;;;9.40;100.00
58473;BME280;44775;51.564;5.460;2023-03-19T01:28:22;100808.94;;;9.40;100.00
58473;BME280;44775;51.564;5.460;2023-03-19T01:30:47;100805.59;;;9.38;100.00
58473;BME280;44775;51.564;5.460;2023-03-19T01:33:13;100805.25;;;9.41;100.00
58473;BME280;44775;51.564;5.460;2023-03-19T01:35:38;100809.44;;;9.43;100.00
58473;BME280;44775;51.564;5.460;2023-03-19T01:38:04;100804.09;;;9.43;100.00
58473;BME280;44775;51.564;5.460;2023-03-19T01:40:29;100794.91;;;9.38;100.00
58473;BME280;44775;51.564;5.460;2023-03-19T01:43:17;100812.09;;;9.43;100.00
58473;BME280;44775;51.564;5.460;2023-03-19T01:45:44;100806.09;;;9.41;100.00
58473;BME280;44775;51.564;5.460;2023-03-19T01:48:45;100811.97;;;9.45;100.00
58473;BME280;44775;51.564;5.460;2023-03-19T01:51:17;100803.28;;;9.43;100.00
58473;BME280;44775;51.564;5.460;2023-03-19T01:53:47;100810.28;;;9.44;100.00
58473;BME280;44775;51.564;5.460;2023-03-19T01:56:25;100805.75;;;9.44;100.00
58473;BME280;44775;51.564;5.460;2023-03-19T01:58:53;100808.63;;;9.43;100.00
58473;BME280;44775;51.564;5.460;2023-03-19T02:01:20;100813.13;;;9.42;100.00
58473;BME280;44775;51.564;5.460;2023-03-19T02:03:48;100804.59;;;9.39;100.00
58473;BME280;44775;51.564;5.460;2023-03-19T02:06:14;100804.44;;;9.40;100.00
58473;BME280;44775;51.564;5.460;2023-03-19T02:08:41;100795.28;;;9.43;100.00
58473;BME280;44775;51.564;5.460;2023-03-19T02:11:06;100804.09;;;9.43;100.00
58473;BME280;44775;51.564;5.460;2023-03-19T02:13:33;100809.44;;;9.43;100.00
58473;BME280;44775;51.564;5.460;2023-03-19T02:15:58;100804.94;;;9.44;100.00
58473;BME280;44775;51.564;5.460;2023-03-19T02:18:25;100805.97;;;9.51;100.00
58473;BME280;44775;51.564;5.460;2023-03-19T02:23:46;100806.78;;;9.43;100.00
58473;BME280;44775;51.564;5.460;2023-03-19T02:26:15;100801.63;;;9.42;100.00
58473;BME280;44775;51.564;5.460;2023-03-19T02:28:43;100807.94;;;9.41;100.00
58473;BME280;44775;51.564;5.460;2023-03-19T02:31:11;100814.78;;;9.43;100.00
58473;BME280;44775;51.564;5.460;2023-03-19T02:33:37;100813.75;;;9.36;100.00
58473;BME280;44775;51.564;5.460;2023-03-19T02:36:04;100819.28;;;9.43;100.00
58473;BME280;44775;51.564;5.460;2023-03-19T02:38:33;100814.25;;;9.40;100.00
58473;BME280;44775;51.564;5.460;2023-03-19T02:41:06;100810.91;;;9.38;100.00
58473;BME280;44775;51.564;5.460;2023-03-19T02:43:34;100813.06;;;9.34;100.00
58473;BME280;44775;51.564;5.460;2023-03-19T02:46:01;100811.06;;;9.28;100.00
58473;BME280;44775;51.564;5.460;2023-03-19T02:48:26;100815.59;;;9.36;100.00
58473;BME280;44775;51.564;5.460;2023-03-19T02:50:52;100813.25;;;9.33;100.00
58473;BME280;44775;51.564;5.460;2023-03-19T02:53:18;100815.53;;;9.28;100.00
58473;BME280;44775;51.564;5.460;2023-03-19T02:55:43;100823.53;;;9.28;100.00
58473;BME280;44775;51.564;5.460;2023-03-19T02:58:09;100824.56;;;9.27;100.00
58473;BME280;44775;51.564;5.460;2023-03-19T03:00:34;100822.88;;;9.26;100.00
58473;BME280;44775;51.564;5.460;2023-03-19T03:03:00;100818.88;;;9.21;100.00
58473;BME280;44775;51.564;5.460;2023-03-19T03:05:26;100821.38;;;9.23;100.00
58473;BME280;44775;51.564;5.460;2023-03-19T03:07:51;100824.72;;;9.25;100.00
58473;BME280;44775;51.564;5.460;2023-03-19T03:10:17;100826.22;;;9.28;100.00
58473;BME280;44775;51.564;5.460;2023-03-19T03:12:42;100831.72;;;9.26;100.00
58473;BME280;44775;51.564;5.460;2023-03-19T03:15:08;100824.56;;;9.27;100.00
58473;BME280;44775;51.564;5.460;2023-03-19T03:17:41;100823.53;;;9.28;100.00
58473;BME280;44775;51.564;5.460;2023-03-19T03:20:08;100819.91;;;9.29;100.00
58473;BME280;44775;51.564;5.460;2023-03-19T03:22:36;100818.69;;;9.23;100.00
58473;BME280;44775;51.564;5.460;2023-03-19T03:25:01;100820.03;;;9.27;100.00
58473;BME280;44775;51.564;5.460;2023-03-19T03:27:26;100811.72;;;9.22;100.00
58473;BME280;44775;51.564;5.460;2023-03-19T03:29:52;100816.53;;;9.18;100.00
58473;BME280;44775;51.564;5.460;2023-03-19T03:32:17;100823.00;;;9.16;100.00
58473;BME280;44775;51.564;5.460;2023-03-19T03:34:42;100820.50;;;9.14;100.00
58473;BME280;44775;51.564;5.460;2023-03-19T03:37:10;100826.50;;;9.16;100.00
58473;BME280;44775;51.564;5.460;2023-03-19T03:39:35;100819.16;;;9.10;100.00
58473;BME280;44775;51.564;5.460;2023-03-19T03:42:01;100812.16;;;9.09;100.00
58473;BME280;44775;51.564;5.460;2023-03-19T03:44:27;100824.78;;;9.07;100.00
58473;BME280;44775;51.564;5.460;2023-03-19T03:46:52;100827.78;;;9.04;100.00
58473;BME280;44775;51.564;5.460;2023-03-19T03:49:17;100829.91;;;9.01;100.00
58473;BME280;44775;51.564;5.460;2023-03-19T03:51:43;100831.41;;;8.95;100.00
58473;BME280;44775;51.564;5.460;2023-03-19T03:54:08;100828.16;;;8.83;100.00
58473;BME280;44775;51.564;5.460;2023-03-19T03:56:33;100828.97;;;8.75;100.00
58473;BME280;44775;51.564;5.460;2023-03-19T03:58:58;100836.56;;;8.70;100.00
58473;BME280;44775;51.564;5.460;2023-03-19T04:01:25;100835.22;;;8.66;100.00
58473;BME280;44775;51.564;5.460;2023-03-19T04:03:50;100843.91;;;8.68;100.00
58473;BME280;44775;51.564;5.460;2023-03-19T04:06:18;100841.03;;;8.62;100.00
58473;BME280;44775;51.564;5.460;2023-03-19T04:08:43;100846.81;;;8.57;100.00
58473;BME280;44775;51.564;5.460;2023-03-19T04:11:09;100844.94;;;8.49;100.00
58473;BME280;44775;51.564;5.460;2023-03-19T04:13:35;100839.38;;;8.43;100.00
58473;BME280;44775;51.564;5.460;2023-03-19T04:16:10;100834.53;;;8.38;100.00
58473;BME280;44775;51.564;5.460;2023-03-19T04:18:36;100827.59;;;8.27;100.00
58473;BME280;44775;51.564;5.460;2023-03-19T04:21:02;100836.88;;;8.23;100.00
58473;BME280;44775;51.564;5.460;2023-03-19T04:23:28;100834.84;;;8.17;100.00
58473;BME280;44775;51.564;5.460;2023-03-19T04:26:04;100837.28;;;8.11;100.00
58473;BME280;44775;51.564;5.460;2023-03-19T04:28:31;100848.34;;;8.06;100.00
58473;BME280;44775;51.564;5.460;2023-03-19T04:31:00;100853.00;;;8.04;100.00
58473;BME280;44775;51.564;5.460;2023-03-19T04:33:26;100849.81;;;8.00;100.00
58473;BME280;44775;51.564;5.460;2023-03-19T04:35:51;100841.44;;;7.95;100.00
58473;BME280;44775;51.564;5.460;2023-03-19T04:38:17;100847.22;;;7.91;100.00
58473;BME280;44775;51.564;5.460;2023-03-19T04:40:42;100842.75;;;7.91;100.00
58473;BME280;44775;51.564;5.460;2023-03-19T04:43:07;100837.88;;;7.87;100.00
58473;BME280;44775;51.564;5.460;2023-03-19T04:45:33;100841.38;;;7.87;100.00
58473;BME280;44775;51.564;5.460;2023-03-19T04:47:58;100836.78;;;7.79;100.00
58473;BME280;44775;51.564;5.460;2023-03-19T04:50:23;100844.75;;;7.79;100.00
58473;BME280;44775;51.564;5.460;2023-03-19T04:52:49;100840.75;;;7.75;100.00
58473;BME280;44775;51.564;5.460;2023-03-19T04:55:14;100844.69;;;7.71;100.00
58473;BME280;44775;51.564;5.460;2023-03-19T04:57:39;100846.66;;;7.69;100.00
58473;BME280;44775;51.564;5.460;2023-03-19T05:00:05;100849.47;;;7.68;100.00
58473;BME280;44775;51.564;5.460;2023-03-19T05:02:31;100852.59;;;7.63;100.00
58473;BME280;44775;51.564;5.460;2023-03-19T05:04:56;100859.16;;;7.59;100.00
58473;BME280;44775;51.564;5.460;2023-03-19T05:07:22;100850.81;;;7.54;100.00
58473;BME280;44775;51.564;5.460;2023-03-19T05:09:47;100864.94;;;7.54;100.00
58473;BME280;44775;51.564;5.460;2023-03-19T05:12:12;100866.66;;;7.46;100.00
58473;BME280;44775;51.564;5.460;2023-03-19T05:14:38;100862.44;;;7.53;100.00
58473;BME280;44775;51.564;5.460;2023-03-19T05:17:04;100867.06;;;7.51;100.00
58473;BME280;44775;51.564;5.460;2023-03-19T05:19:29;100870.44;;;7.53;100.00
58473;BME280;44775;51.564;5.460;2023-03-19T05:21:55;100876.16;;;7.48;100.00
58473;BME280;44775;51.564;5.460;2023-03-19T05:24:21;100875.94;;;7.42;100.00
58473;BME280;44775;51.564;5.460;2023-03-19T05:26:47;100875.94;;;7.42;100.00
58473;BME280;44775;51.564;5.460;2023-03-19T05:29:12;100870.53;;;7.33;100.00
58473;BME280;44775;51.564;5.460;2023-03-19T05:31:39;100884.91;;;7.41;100.00
58473;BME280;44775;51.564;5.460;2023-03-19T05:34:05;100873.47;;;7.30;100.00
58473;BME280;44775;51.564;5.460;2023-03-19T05:36:30;100876.13;;;7.30;100.00
58473;BME280;44775;51.564;5.460;2023-03-19T05:38:56;100883.69;;;7.25;100.00
58473;BME280;44775;51.564;5.460;2023-03-19T05:41:21;100887.03;;;7.27;100.00
58473;BME280;44775;51.564;5.460;2023-03-19T05:43:46;100894.31;;;7.25;100.00
58473;BME280;44775;51.564;5.460;2023-03-19T05:46:12;100886.25;;;7.17;100.00
58473;BME280;44775;51.564;5.460;2023-03-19T05:48:37;100889.06;;;7.16;100.00
58473;BME280;44775;51.564;5.460;2023-03-19T05:51:03;100894.78;;;7.11;100.00
58473;BME280;44775;51.564;5.460;2023-03-19T05:53:28;100900.09;;;7.11;100.00
58473;BME280;44775;51.564;5.460;2023-03-19T05:55:53;100904.75;;;7.09;100.00
58473;BME280;44775;51.564;5.460;2023-03-19T05:58:19;100902.09;;;7.09;100.00
58473;BME280;44775;51.564;5.460;2023-03-19T06:00:44;100901.97;;;7.01;100.00
58473;BME280;44775;51.564;5.460;2023-03-19T06:03:10;100901.28;;;6.99;100.00
58473;BME280;44775;51.564;5.460;2023-03-19T06:05:35;100901.13;;;7.00;100.00
58473;BME280;44775;51.564;5.460;2023-03-19T06:08:01;100896.34;;;7.04;100.00
58473;BME280;44775;51.564;5.460;2023-03-19T06:10:26;100902.78;;;7.01;100.00
58473;BME280;44775;51.564;5.460;2023-03-19T06:12:51;100903.34;;;7.05;100.00
58473;BME280;44775;51.564;5.460;2023-03-19T06:15:17;100916.63;;;7.05;100.00
58473;BME280;44775;51.564;5.460;2023-03-19T06:17:42;100917.88;;;7.10;100.00
58473;BME280;44775;51.564;5.460;2023-03-19T06:20:09;100919.00;;;7.08;100.00
58473;BME280;44775;51.564;5.460;2023-03-19T06:22:35;100922.50;;;7.08;100.00
58473;BME280;44775;51.564;5.460;2023-03-19T06:25:00;100922.38;;;7.10;100.00
58473;BME280;44775;51.564;5.460;2023-03-19T06:27:26;100929.22;;;7.13;100.00
58473;BME280;44775;51.564;5.460;2023-03-19T06:29:51;100922.50;;;7.08;100.00
58473;BME280;44775;51.564;5.460;2023-03-19T06:32:16;100926.41;;;7.14;100.00
58473;BME280;44775;51.564;5.460;2023-03-19T06:34:42;100931.69;;;7.24;100.00
58473;BME280;44775;51.564;5.460;2023-03-19T06:37:07;100935.63;;;7.20;100.00
58473;BME280;44775;51.564;5.460;2023-03-19T06:39:32;100947.47;;;7.25;100.00
58473;BME280;44775;51.564;5.460;2023-03-19T06:41:59;100939.66;;;7.24;100.00
58473;BME280;44775;51.564;5.460;2023-03-19T06:44:24;100942.88;;;7.18;100.00
58473;BME280;44775;51.564;5.460;2023-03-19T06:46:49;100942.16;;;7.25;100.00
58473;BME280;44775;51.564;5.460;2023-03-19T06:49:15;100948.72;;;7.31;100.00
58473;BME280;44775;51.564;5.460;2023-03-19T06:51:41;100948.16;;;7.37;100.00
58473;BME280;44775;51.564;5.460;2023-03-19T06:54:06;100941.47;;;7.33;100.00
58473;BME280;44775;51.564;5.460;2023-03-19T06:56:32;100949.94;;;7.46;100.00
58473;BME280;44775;51.564;5.460;2023-03-19T06:58:57;100950.63;;;7.48;100.00
58473;BME280;44775;51.564;5.460;2023-03-19T07:01:22;100960.84;;;7.53;100.00
58473;BME280;44775;51.564;5.460;2023-03-19T07:03:48;100955.66;;;7.51;100.00
58473;BME280;44775;51.564;5.460;2023-03-19T07:06:13;100961.94;;;7.60;100.00
58473;BME280;44775;51.564;5.460;2023-03-19T07:08:38;100961.09;;;7.60;100.00
58473;BME280;44775;51.564;5.460;2023-03-19T07:11:06;100973.38;;;7.70;100.00
58473;BME280;44775;51.564;5.460;2023-03-19T07:13:32;100973.28;;;7.90;100.00
58473;BME280;44775;51.564;5.460;2023-03-19T07:15:58;100966.38;;;7.97;100.00
58473;BME280;44775;51.564;5.460;2023-03-19T07:18:24;100980.69;;;8.14;100.00
58473;BME280;44775;51.564;5.460;2023-03-19T07:20:49;100970.00;;;8.23;100.00
58473;BME280;44775;51.564;5.460;2023-03-19T07:23:16;100982.28;;;8.52;100.00
58473;BME280;44775;51.564;5.460;2023-03-19T07:25:42;100980.38;;;8.62;100.00
58473;BME280;44775;51.564;5.460;2023-03-19T07:28:07;100988.13;;;8.73;100.00
58473;BME280;44775;51.564;5.460;2023-03-19T07:30:32;100994.00;;;8.95;100.00
58473;BME280;44775;51.564;5.460;2023-03-19T07:32:59;100996.41;;;9.06;100.00
58473;BME280;44775;51.564;5.460;2023-03-19T07:35:24;101005.41;;;9.31;100.00
58473;BME280;44775;51.564;5.460;2023-03-19T07:37:50;101001.88;;;9.49;100.00
58473;BME280;44775;51.564;5.460;2023-03-19T07:40:16;101000.59;;;9.61;100.00
58473;BME280;44775;51.564;5.460;2023-03-19T07:42:41;101008.06;;;9.91;100.00
58473;BME280;44775;51.564;5.460;2023-03-19T07:45:07;101007.41;;;9.89;100.00
58473;BME280;44775;51.564;5.460;2023-03-19T07:47:32;101006.09;;;10.02;100.00
58473;BME280;44775;51.564;5.460;2023-03-19T07:49:57;101010.66;;;10.09;100.00
58473;BME280;44775;51.564;5.460;2023-03-19T07:52:24;101011.91;;;10.31;100.00
58473;BME280;44775;51.564;5.460;2023-03-19T07:54:50;101016.16;;;10.50;100.00
58473;BME280;44775;51.564;5.460;2023-03-19T07:57:16;101026.88;;;10.75;100.00
58473;BME280;44775;51.564;5.460;2023-03-19T07:59:42;101032.22;;;10.83;100.00
58473;BME280;44775;51.564;5.460;2023-03-19T08:02:11;101034.41;;;10.96;100.00
58473;BME280;44775;51.564;5.460;2023-03-19T08:04:37;101031.91;;;11.02;100.00
58473;BME280;44775;51.564;5.460;2023-03-19T08:07:02;101047.78;;;11.04;100.00
58473;BME280;44775;51.564;5.460;2023-03-19T08:09:28;101045.59;;;11.16;100.00
58473;BME280;44775;51.564;5.460;2023-03-19T08:11:53;101045.09;;;11.37;100.00
58473;BME280;44775;51.564;5.460;2023-03-19T08:14:18;101044.28;;;11.28;100.00
58473;BME280;44775;51.564;5.460;2023-03-19T08:16:47;101046.09;;;11.35;100.00
58473;BME280;44775;51.564;5.460;2023-03-19T08:19:12;101058.63;;;11.43;100.00
58473;BME280;44775;51.564;5.460;2023-03-19T08:21:38;101054.63;;;11.31;100.00
58473;BME280;44775;51.564;5.460;2023-03-19T08:24:03;101060.47;;;11.26;100.00
58473;BME280;44775;51.564;5.460;2023-03-19T08:26:29;101056.47;;;11.39;100.00
58473;BME280;44775;51.564;5.460;2023-03-19T08:28:57;101065.63;;;11.61;100.00
58473;BME280;44775;51.564;5.460;2023-03-19T08:31:22;101062.78;;;11.62;100.00
58473;BME280;44775;51.564;5.460;2023-03-19T08:33:47;101082.66;;;11.84;100.00
58473;BME280;44775;51.564;5.460;2023-03-19T08:36:13;101072.31;;;11.73;100.00
58473;BME280;44775;51.564;5.460;2023-03-19T08:38:38;101067.78;;;11.90;100.00
58473;BME280;44775;51.564;5.460;2023-03-19T08:41:04;101078.44;;;12.06;100.00
58473;BME280;44775;51.564;5.460;2023-03-19T08:43:32;101074.13;;;12.36;100.00
58473;BME280;44775;51.564;5.460;2023-03-19T08:45:58;101073.25;;;12.44;100.00
58473;BME280;44775;51.564;5.460;2023-03-19T08:48:23;101083.81;;;12.76;100.00
58473;BME280;44775;51.564;5.460;2023-03-19T08:50:57;101076.00;;;12.90;100.00
58473;BME280;44775;51.564;5.460;2023-03-19T08:53:23;101077.78;;;13.20;100.00
58473;BME280;44775;51.564;5.460;2023-03-19T08:55:56;101080.66;;;13.42;100.00
58473;BME280;44775;51.564;5.460;2023-03-19T08:58:22;101089.13;;;13.68;100.00
58473;BME280;44775;51.564;5.460;2023-03-19T09:00:48;101083.13;;;13.96;100.00
58473;BME280;44775;51.564;5.460;2023-03-19T09:03:15;101101.56;;;14.14;98.12
58473;BME280;44775;51.564;5.460;2023-03-19T09:05:40;101090.34;;;13.96;100.00
58473;BME280;44775;51.564;5.460;2023-03-19T09:08:06;101096.59;;;13.43;100.00
58473;BME280;44775;51.564;5.460;2023-03-19T09:10:32;101101.91;;;13.29;100.00
58473;BME280;44775;51.564;5.460;2023-03-19T09:12:57;101097.75;;;12.95;100.00
58473;BME280;44775;51.564;5.460;2023-03-19T09:15:23;101096.63;;;12.89;100.00
58473;BME280;44775;51.564;5.460;2023-03-19T09:17:48;101103.34;;;12.54;100.00
58473;BME280;44775;51.564;5.460;2023-03-19T09:20:14;101106.56;;;12.49;100.00
58473;BME280;44775;51.564;5.460;2023-03-19T09:22:39;101099.16;;;12.51;100.00
58473;BME280;44775;51.564;5.460;2023-03-19T09:25:05;101107.28;;;12.97;100.00
58473;BME280;44775;51.564;5.460;2023-03-19T09:27:30;101112.72;;;13.58;100.00
58473;BME280;44775;51.564;5.460;2023-03-19T09:29:56;101120.00;;;14.02;95.90
58473;BME280;44775;51.564;5.460;2023-03-19T09:32:21;101121.59;;;14.56;97.08
58473;BME280;44775;51.564;5.460;2023-03-19T09:34:47;101121.03;;;15.18;91.97
58473;BME280;44775;51.564;5.460;2023-03-19T09:37:12;101125.69;;;15.74;92.62
58473;BME280;44775;51.564;5.460;2023-03-19T09:39:38;101131.84;;;16.24;84.20
58473;BME280;44775;51.564;5.460;2023-03-19T09:42:25;101137.81;;;16.54;84.30
58473;BME280;44775;51.564;5.460;2023-03-19T09:44:55;101146.25;;;16.86;78.80
58473;BME280;44775;51.564;5.460;2023-03-19T09:47:32;101141.13;;;17.24;76.41
58473;BME280;44775;51.564;5.460;2023-03-19T09:50:24;101134.09;;;17.69;80.13
58473;BME280;44775;51.564;5.460;2023-03-19T09:53:00;101150.13;;;18.04;72.45
58473;BME280;44775;51.564;5.460;2023-03-19T09:57:53;101145.13;;;17.41;69.85
58473;BME280;44775;51.564;5.460;2023-03-19T10:00:34;101136.75;;;17.16;74.85
58473;BME280;44775;51.564;5.460;2023-03-19T10:05:45;101144.50;;;16.71;78.39
58473;BME280;44775;51.564;5.460;2023-03-19T10:16:43;101149.88;;;17.19;70.47
58473;BME280;44775;51.564;5.460;2023-03-19T10:19:12;101152.16;;;17.29;73.01
58473;BME280;44775;51.564;5.460;2023-03-19T10:21:51;101154.59;;;16.91;71.44
58473;BME280;44775;51.564;5.460;2023-03-19T10:24:24;101150.53;;;17.61;70.38
58473;BME280;44775;51.564;5.460;2023-03-19T10:26:58;101148.44;;;18.10;69.20
58473;BME280;44775;51.564;5.460;2023-03-19T10:29:24;101161.75;;;18.05;65.79
58473;BME280;44775;51.564;5.460;2023-03-19T10:32:25;101156.59;;;17.77;65.37
58473;BME280;44775;51.564;5.460;2023-03-19T10:34:56;101149.84;;;17.13;69.04
58473;BME280;44775;51.564;5.460;2023-03-19T10:37:24;101157.56;;;17.22;69.18
58473;BME280;44775;51.564;5.460;2023-03-19T10:39:54;101170.38;;;17.07;73.18
58473;BME280;44775;51.564;5.460;2023-03-19T10:42:33;101155.47;;;17.11;71.27
58473;BME280;44775;51.564;5.460;2023-03-19T10:45:09;101165.44;;;17.17;71.14
58473;BME280;44775;51.564;5.460;2023-03-19T10:47:39;101167.78;;;17.74;68.19
58473;BME280;44775;51.564;5.460;2023-03-19T10:50:06;101171.94;;;18.16;65.88
58473;BME280;44775;51.564;5.460;2023-03-19T10:52:36;101172.38;;;18.20;67.95
58473;BME280;44775;51.564;5.460;2023-03-19T10:55:23;101176.56;;;19.50;61.36
58473;BME280;44775;51.564;5.460;2023-03-19T10:57:50;101172.25;;;20.18;57.15
58473;BME280;44775;51.564;5.460;2023-03-19T11:00:23;101173.78;;;19.32;56.69
58473;BME280;44775;51.564;5.460;2023-03-19T11:02:54;101177.94;;;18.96;59.50
58473;BME280;44775;51.564;5.460;2023-03-19T11:07:49;101170.81;;;18.50;62.94
58473;BME280;44775;51.564;5.460;2023-03-19T11:10:16;101175.91;;;18.13;61.19
58473;BME280;44775;51.564;5.460;2023-03-19T11:12:51;101175.50;;;17.97;63.66
58473;BME280;44775;51.564;5.460;2023-03-19T11:15:25;101180.69;;;17.91;62.36
58473;BME280;44775;51.564;5.460;2023-03-19T11:17:57;101174.47;;;17.84;63.41
58473;BME280;44775;51.564;5.460;2023-03-19T11:20:37;101170.50;;;18.00;64.70
58473;BME280;44775;51.564;5.460;2023-03-19T11:23:12;101177.56;;;18.01;62.38
58473;BME280;44775;51.564;5.460;2023-03-19T11:25:46;101172.16;;;17.75;64.85
58473;BME280;44775;51.564;5.460;2023-03-19T11:28:16;101183.56;;;18.36;61.62
58473;BME280;44775;51.564;5.460;2023-03-19T11:31:01;101182.63;;;18.76;62.46
58473;BME280;44775;51.564;5.460;2023-03-19T11:39:29;101186.50;;;17.62;63.75
58473;BME280;44775;51.564;5.460;2023-03-19T11:45:07;101195.94;;;16.98;68.19
58473;BME280;44775;51.564;5.460;2023-03-19T11:53:09;101186.78;;;16.23;70.94
58473;BME280;44775;51.564;5.460;2023-03-19T11:58:28;101186.91;;;15.80;73.06
58473;BME280;44775;51.564;5.460;2023-03-19T12:01:09;101180.84;;;15.78;74.29
58473;BME280;44775;51.564;5.460;2023-03-19T12:06:50;101175.53;;;15.85;75.39
58473;BME280;44775;51.564;5.460;2023-03-19T12:09:32;101185.06;;;16.15;74.27
58473;BME280;44775;51.564;5.460;2023-03-19T12:15:13;101187.16;;;16.48;71.19
58473;BME280;44775;51.564;5.460;2023-03-19T12:17:43;101184.41;;;16.76;69.81
58473;BME280;44775;51.564;5.460;2023-03-19T12:23:11;101174.19;;;16.71;68.05
58473;BME280;44775;51.564;5.460;2023-03-19T12:25:53;101180.59;;;16.70;69.00
58473;BME280;44775;51.564;5.460;2023-03-19T12:29:17;101179.59;;;16.71;68.68
58473;BME280;44775;51.564;5.460;2023-03-19T12:31:37;101171.78;;;16.90;69.09
58473;BME280;44775;51.564;5.460;2023-03-19T12:34:34;101182.84;;;17.02;68.03
58473;BME280;44775;51.564;5.460;2023-03-19T12:39:45;101179.34;;;16.66;67.88
58473;BME280;44775;51.564;5.460;2023-03-19T12:42:18;101178.50;;;16.66;68.37
58473;BME280;44775;51.564;5.460;2023-03-19T12:44:49;101189.47;;;16.99;65.63
58473;BME280;44775;51.564;5.460;2023-03-19T12:47:19;101174.97;;;17.07;65.45
58473;BME280;44775;51.564;5.460;2023-03-19T12:49:50;101197.75;;;16.84;66.00
58473;BME280;44775;51.564;5.460;2023-03-19T12:52:22;101185.97;;;16.57;67.86
58473;BME280;44775;51.564;5.460;2023-03-19T12:55:05;101185.16;;;16.28;69.94
58473;BME280;44775;51.564;5.460;2023-03-19T12:57:43;101184.47;;;16.20;69.62
58473;BME280;44775;51.564;5.460;2023-03-19T13:02:56;101189.31;;;16.66;70.89
58473;BME280;44775;51.564;5.460;2023-03-19T13:05:33;101192.75;;;16.81;67.88
58473;BME280;44775;51.564;5.460;2023-03-19T13:10:38;101205.16;;;16.75;66.69
58473;BME280;44775;51.564;5.460;2023-03-19T13:16:30;101205.63;;;16.51;69.60
58473;BME280;44775;51.564;5.460;2023-03-19T13:21:34;101199.56;;;16.42;69.92
58473;BME280;44775;51.564;5.460;2023-03-19T13:26:30;101201.09;;;16.58;67.36
58473;BME280;44775;51.564;5.460;2023-03-19T13:29:00;101212.94;;;16.57;67.30
58473;BME280;44775;51.564;5.460;2023-03-19T13:31:28;101211.06;;;16.58;67.41
58473;BME280;44775;51.564;5.460;2023-03-19T13:36:44;101217.34;;;17.13;66.54
58473;BME280;44775;51.564;5.460;2023-03-19T13:39:15;101217.53;;;17.86;62.95
58473;BME280;44775;51.564;5.460;2023-03-19T13:44:34;101214.53;;;18.47;60.23
58473;BME280;44775;51.564;5.460;2023-03-19T13:50:26;101224.94;;;17.64;62.21
58473;BME280;44775;51.564;5.460;2023-03-19T13:53:09;101223.38;;;17.08;64.62
58473;BME280;44775;51.564;5.460;2023-03-19T13:55:52;101226.47;;;17.05;65.18
58473;BME280;44775;51.564;5.460;2023-03-19T13:58:23;101220.28;;;17.11;64.97
58473;BME280;44775;51.564;5.460;2023-03-19T14:01:09;101227.84;;;17.49;63.41
58473;BME280;44775;51.564;5.460;2023-03-19T14:03:39;101220.84;;;18.14;61.25